sensor_id;sensor_type;location;lat;lon;timestamp;temperature;humidity
71754;DHT22;59593;51.716;7.016;2023-06-14T00:01:47;19.60;72.70
71754;DHT22;59593;51.716;7.016;2023-06-14T00:04:14;19.60;72.60
71754;DHT22;59593;51.716;7.016;2023-06-14T00:06:42;19.50;73.20
71754;DHT22;59593;51.716;7.016;2023-06-14T00:09:11;19.40;73.00
71754;DHT22;59593;51.716;7.016;2023-06-14T00:11:38;19.30;73.20
71754;DHT22;59593;51.716;7.016;2023-06-14T00:14:04;19.40;73.50
71754;DHT22;59593;51.716;7.016;2023-06-14T00:16:30;19.40;73.00
71754;DHT22;59593;51.716;7.016;2023-06-14T00:18:55;19.40;73.30
71754;DHT22;59593;51.716;7.016;2023-06-14T00:21:21;19.30;73.30
71754;DHT22;59593;51.716;7.016;2023-06-14T00:23:47;19.30;73.20
71754;DHT22;59593;51.716;7.016;2023-06-14T00:26:12;19.20;73.80
71754;DHT22;59593;51.716;7.016;2023-06-14T00:28:38;19.30;74.50
71754;DHT22;59593;51.716;7.016;2023-06-14T00:31:03;19.20;73.90
71754;DHT22;59593;51.716;7.016;2023-06-14T00:33:29;19.10;74.10
71754;DHT22;59593;51.716;7.016;2023-06-14T00:35:55;19.10;74.80
71754;DHT22;59593;51.716;7.016;2023-06-14T00:38:21;19.10;74.70
71754;DHT22;59593;51.716;7.016;2023-06-14T00:40:47;19.10;74.60
71754;DHT22;59593;51.716;7.016;2023-06-14T00:43:12;19.10;74.70
71754;DHT22;59593;51.716;7.016;2023-06-14T00:45:40;19.00;75.90
71754;DHT22;59593;51.716;7.016;2023-06-14T00:48:06;19.00;75.30
71754;DHT22;59593;51.716;7.016;2023-06-14T00:50:32;19.00;75.20
71754;DHT22;59593;51.716;7.016;2023-06-14T00:53:00;18.90;75.20
71754;DHT22;59593;51.716;7.016;2023-06-14T00:55:26;18.80;75.60
71754;DHT22;59593;51.716;7.016;2023-06-14T00:57:54;18.90;75.50
71754;DHT22;59593;51.716;7.016;2023-06-14T01:00:20;18.90;75.50
71754;DHT22;59593;51.716;7.016;2023-06-14T01:02:46;18.80;75.60
71754;DHT22;59593;51.716;7.016;2023-06-14T01:05:12;18.80;75.80
71754;DHT22;59593;51.716;7.016;2023-06-14T01:07:50;18.70;75.90
71754;DHT22;59593;51.716;7.016;2023-06-14T01:10:36;18.60;76.40
71754;DHT22;59593;51.716;7.016;2023-06-14T01:15:34;18.50;76.50
71754;DHT22;59593;51.716;7.016;2023-06-14T01:18:00;18.50;76.40
71754;DHT22;59593;51.716;7.016;2023-06-14T01:20:32;18.50;76.50
71754;DHT22;59593;51.716;7.016;2023-06-14T01:22:58;18.50;76.80
71754;DHT22;59593;51.716;7.016;2023-06-14T01:25:24;18.40;76.80
71754;DHT22;59593;51.716;7.016;2023-06-14T01:28:02;18.30;77.50
71754;DHT22;59593;51.716;7.016;2023-06-14T01:30:29;18.30;76.90
71754;DHT22;59593;51.716;7.016;2023-06-14T01:32:56;18.30;77.70
71754;DHT22;59593;51.716;7.016;2023-06-14T01:35:23;18.30;77.40
71754;DHT22;59593;51.716;7.016;2023-06-14T01:37:50;18.30;77.40
71754;DHT22;59593;51.716;7.016;2023-06-14T01:40:18;18.20;77.60
71754;DHT22;59593;51.716;7.016;2023-06-14T01:42:46;18.20;77.30
71754;DHT22;59593;51.716;7.016;2023-06-14T01:45:13;18.20;77.70
71754;DHT22;59593;51.716;7.016;2023-06-14T01:47:40;18.30;77.50
71754;DHT22;59593;51.716;7.016;2023-06-14T01:50:06;18.20;78.10
71754;DHT22;59593;51.716;7.016;2023-06-14T01:52:31;18.10;78.40
71754;DHT22;59593;51.716;7.016;2023-06-14T01:54:57;18.00;78.70
71754;DHT22;59593;51.716;7.016;2023-06-14T01:57:24;18.00;78.10
71754;DHT22;59593;51.716;7.016;2023-06-14T01:59:50;17.90;78.00
71754;DHT22;59593;51.716;7.016;2023-06-14T02:02:16;17.90;78.40
71754;DHT22;59593;51.716;7.016;2023-06-14T02:04:42;17.90;78.30
71754;DHT22;59593;51.716;7.016;2023-06-14T02:07:07;18.00;78.10
71754;DHT22;59593;51.716;7.016;2023-06-14T02:09:34;18.00;78.40
71754;DHT22;59593;51.716;7.016;2023-06-14T02:12:01;18.00;79.10
71754;DHT22;59593;51.716;7.016;2023-06-14T02:14:27;17.90;78.70
71754;DHT22;59593;51.716;7.016;2023-06-14T02:16:52;17.80;78.70
71754;DHT22;59593;51.716;7.016;2023-06-14T02:19:19;17.90;78.40
71754;DHT22;59593;51.716;7.016;2023-06-14T02:21:46;17.70;78.60
71754;DHT22;59593;51.716;7.016;2023-06-14T02:24:12;17.70;79.40
71754;DHT22;59593;51.716;7.016;2023-06-14T02:26:38;17.70;79.10
71754;DHT22;59593;51.716;7.016;2023-06-14T02:29:05;17.70;79.20
71754;DHT22;59593;51.716;7.016;2023-06-14T02:31:31;17.70;79.30
71754;DHT22;59593;51.716;7.016;2023-06-14T02:33:57;17.70;79.50
71754;DHT22;59593;51.716;7.016;2023-06-14T02:36:23;17.60;80.00
71754;DHT22;59593;51.716;7.016;2023-06-14T02:38:49;17.60;80.10
71754;DHT22;59593;51.716;7.016;2023-06-14T02:41:15;17.60;79.70
71754;DHT22;59593;51.716;7.016;2023-06-14T02:43:40;17.60;80.30
71754;DHT22;59593;51.716;7.016;2023-06-14T02:46:06;17.50;80.10
71754;DHT22;59593;51.716;7.016;2023-06-14T02:48:32;17.50;80.70
71754;DHT22;59593;51.716;7.016;2023-06-14T02:50:58;17.40;80.30
71754;DHT22;59593;51.716;7.016;2023-06-14T02:53:23;17.40;80.70
71754;DHT22;59593;51.716;7.016;2023-06-14T02:55:49;17.40;80.50
71754;DHT22;59593;51.716;7.016;2023-06-14T02:58:14;17.40;80.80
71754;DHT22;59593;51.716;7.016;2023-06-14T03:00:42;17.40;81.00
71754;DHT22;59593;51.716;7.016;2023-06-14T03:03:08;17.40;80.80
71754;DHT22;59593;51.716;7.016;2023-06-14T03:05:45;17.40;81.20
71754;DHT22;59593;51.716;7.016;2023-06-14T03:08:16;17.30;80.90
71754;DHT22;59593;51.716;7.016;2023-06-14T03:10:46;17.20;81.50
71754;DHT22;59593;51.716;7.016;2023-06-14T03:13:12;17.20;81.30
71754;DHT22;59593;51.716;7.016;2023-06-14T03:15:38;17.20;81.90
71754;DHT22;59593;51.716;7.016;2023-06-14T03:18:08;17.20;81.80
71754;DHT22;59593;51.716;7.016;2023-06-14T03:20:35;17.10;81.90
71754;DHT22;59593;51.716;7.016;2023-06-14T03:23:02;17.10;82.50
71754;DHT22;59593;51.716;7.016;2023-06-14T03:25:28;17.10;82.30
71754;DHT22;59593;51.716;7.016;2023-06-14T03:27:55;17.00;82.10
71754;DHT22;59593;51.716;7.016;2023-06-14T03:30:21;17.00;83.00
71754;DHT22;59593;51.716;7.016;2023-06-14T03:32:46;16.90;82.90
71754;DHT22;59593;51.716;7.016;2023-06-14T03:35:12;16.90;83.10
71754;DHT22;59593;51.716;7.016;2023-06-14T03:37:43;16.90;83.00
71754;DHT22;59593;51.716;7.016;2023-06-14T03:40:09;17.00;83.00
71754;DHT22;59593;51.716;7.016;2023-06-14T03:42:34;17.00;83.20
71754;DHT22;59593;51.716;7.016;2023-06-14T03:45:00;16.90;83.30
71754;DHT22;59593;51.716;7.016;2023-06-14T03:47:26;16.80;83.60
71754;DHT22;59593;51.716;7.016;2023-06-14T03:49:52;16.90;83.80
71754;DHT22;59593;51.716;7.016;2023-06-14T03:52:18;16.90;84.20
71754;DHT22;59593;51.716;7.016;2023-06-14T03:54:43;16.90;84.50
71754;DHT22;59593;51.716;7.016;2023-06-14T03:57:09;16.90;84.40
71754;DHT22;59593;51.716;7.016;2023-06-14T03:59:35;16.90;84.30
71754;DHT22;59593;51.716;7.016;2023-06-14T04:02:02;16.90;84.20
71754;DHT22;59593;51.716;7.016;2023-06-14T04:04:27;17.00;84.00
71754;DHT22;59593;51.716;7.016;2023-06-14T04:06:55;16.90;84.60
71754;DHT22;59593;51.716;7.016;2023-06-14T04:09:24;16.90;84.90
71754;DHT22;59593;51.716;7.016;2023-06-14T04:11:51;16.90;84.90
71754;DHT22;59593;51.716;7.016;2023-06-14T04:14:18;16.90;85.40
71754;DHT22;59593;51.716;7.016;2023-06-14T04:16:46;16.90;85.10
71754;DHT22;59593;51.716;7.016;2023-06-14T04:19:11;17.00;85.30
71754;DHT22;59593;51.716;7.016;2023-06-14T04:21:37;17.00;85.20
71754;DHT22;59593;51.716;7.016;2023-06-14T04:24:03;17.00;85.90
71754;DHT22;59593;51.716;7.016;2023-06-14T04:26:29;17.00;85.60
71754;DHT22;59593;51.716;7.016;2023-06-14T04:28:56;17.10;85.70
71754;DHT22;59593;51.716;7.016;2023-06-14T04:31:22;17.00;85.40
71754;DHT22;59593;51.716;7.016;2023-06-14T04:33:50;17.10;85.60
71754;DHT22;59593;51.716;7.016;2023-06-14T04:36:18;17.20;85.30
71754;DHT22;59593;51.716;7.016;2023-06-14T04:38:44;17.10;85.10
71754;DHT22;59593;51.716;7.016;2023-06-14T04:41:11;17.20;85.20
71754;DHT22;59593;51.716;7.016;2023-06-14T04:43:38;17.20;85.60
71754;DHT22;59593;51.716;7.016;2023-06-14T04:46:06;17.20;86.00
71754;DHT22;59593;51.716;7.016;2023-06-14T04:48:39;17.30;86.50
71754;DHT22;59593;51.716;7.016;2023-06-14T04:51:07;17.40;86.50
71754;DHT22;59593;51.716;7.016;2023-06-14T04:53:32;17.50;86.70
71754;DHT22;59593;51.716;7.016;2023-06-14T04:55:58;17.50;85.80
71754;DHT22;59593;51.716;7.016;2023-06-14T04:58:23;17.50;86.30
71754;DHT22;59593;51.716;7.016;2023-06-14T05:00:49;17.60;86.20
71754;DHT22;59593;51.716;7.016;2023-06-14T05:03:15;17.60;85.90
71754;DHT22;59593;51.716;7.016;2023-06-14T05:05:41;17.80;85.10
71754;DHT22;59593;51.716;7.016;2023-06-14T05:08:07;17.70;85.90
71754;DHT22;59593;51.716;7.016;2023-06-14T05:10:34;17.80;86.30
71754;DHT22;59593;51.716;7.016;2023-06-14T05:13:01;17.80;86.20
71754;DHT22;59593;51.716;7.016;2023-06-14T05:15:27;17.90;86.20
71754;DHT22;59593;51.716;7.016;2023-06-14T05:17:54;17.90;85.60
71754;DHT22;59593;51.716;7.016;2023-06-14T05:20:24;18.00;87.20
71754;DHT22;59593;51.716;7.016;2023-06-14T05:22:51;18.00;85.90
71754;DHT22;59593;51.716;7.016;2023-06-14T05:25:18;18.10;86.50
71754;DHT22;59593;51.716;7.016;2023-06-14T05:27:44;18.20;86.40
71754;DHT22;59593;51.716;7.016;2023-06-14T05:30:10;18.10;85.60
71754;DHT22;59593;51.716;7.016;2023-06-14T05:32:36;18.20;86.30
71754;DHT22;59593;51.716;7.016;2023-06-14T05:35:05;18.30;86.30
71754;DHT22;59593;51.716;7.016;2023-06-14T05:37:31;18.40;85.10
71754;DHT22;59593;51.716;7.016;2023-06-14T05:39:57;18.30;84.60
71754;DHT22;59593;51.716;7.016;2023-06-14T05:42:22;18.40;85.40
71754;DHT22;59593;51.716;7.016;2023-06-14T05:44:51;18.50;85.50
71754;DHT22;59593;51.716;7.016;2023-06-14T05:47:16;18.70;84.70
71754;DHT22;59593;51.716;7.016;2023-06-14T05:49:42;18.70;84.60
71754;DHT22;59593;51.716;7.016;2023-06-14T05:52:09;18.80;84.70
71754;DHT22;59593;51.716;7.016;2023-06-14T05:54:35;18.90;84.40
71754;DHT22;59593;51.716;7.016;2023-06-14T05:57:01;19.00;84.30
71754;DHT22;59593;51.716;7.016;2023-06-14T05:59:29;19.00;84.60
71754;DHT22;59593;51.716;7.016;2023-06-14T06:01:55;19.10;84.10
71754;DHT22;59593;51.716;7.016;2023-06-14T06:04:21;19.30;83.50
71754;DHT22;59593;51.716;7.016;2023-06-14T06:06:46;19.40;83.30
71754;DHT22;59593;51.716;7.016;2023-06-14T06:09:13;19.30;82.70
71754;DHT22;59593;51.716;7.016;2023-06-14T06:11:40;19.40;82.30
71754;DHT22;59593;51.716;7.016;2023-06-14T06:14:05;19.30;82.90
71754;DHT22;59593;51.716;7.016;2023-06-14T06:16:31;19.40;83.30
71754;DHT22;59593;51.716;7.016;2023-06-14T06:18:57;19.40;82.60
71754;DHT22;59593;51.716;7.016;2023-06-14T06:21:23;19.40;83.40
71754;DHT22;59593;51.716;7.016;2023-06-14T06:23:48;19.40;82.40
71754;DHT22;59593;51.716;7.016;2023-06-14T06:26:14;19.60;82.10
71754;DHT22;59593;51.716;7.016;2023-06-14T06:28:39;19.60;81.30
71754;DHT22;59593;51.716;7.016;2023-06-14T06:31:05;19.60;81.80
71754;DHT22;59593;51.716;7.016;2023-06-14T06:33:31;19.60;82.30
71754;DHT22;59593;51.716;7.016;2023-06-14T06:35:57;19.80;81.60
71754;DHT22;59593;51.716;7.016;2023-06-14T06:38:22;19.80;81.10
71754;DHT22;59593;51.716;7.016;2023-06-14T06:40:48;19.90;80.90
71754;DHT22;59593;51.716;7.016;2023-06-14T06:43:13;19.80;81.40
71754;DHT22;59593;51.716;7.016;2023-06-14T06:45:40;19.80;80.90
71754;DHT22;59593;51.716;7.016;2023-06-14T06:48:05;20.00;81.90
71754;DHT22;59593;51.716;7.016;2023-06-14T06:50:31;20.10;81.20
71754;DHT22;59593;51.716;7.016;2023-06-14T06:52:57;20.20;82.10
71754;DHT22;59593;51.716;7.016;2023-06-14T06:55:23;20.30;80.90
71754;DHT22;59593;51.716;7.016;2023-06-14T06:57:48;20.40;80.30
71754;DHT22;59593;51.716;7.016;2023-06-14T07:00:15;20.30;80.60
71754;DHT22;59593;51.716;7.016;2023-06-14T07:02:41;20.50;79.40
71754;DHT22;59593;51.716;7.016;2023-06-14T07:05:07;20.50;78.50
71754;DHT22;59593;51.716;7.016;2023-06-14T07:07:34;20.50;79.90
71754;DHT22;59593;51.716;7.016;2023-06-14T07:09:59;20.50;79.60
71754;DHT22;59593;51.716;7.016;2023-06-14T07:12:30;20.40;79.20
71754;DHT22;59593;51.716;7.016;2023-06-14T07:14:57;20.40;79.90
71754;DHT22;59593;51.716;7.016;2023-06-14T07:17:22;20.60;79.40
71754;DHT22;59593;51.716;7.016;2023-06-14T07:19:48;20.50;79.00
71754;DHT22;59593;51.716;7.016;2023-06-14T07:22:13;20.40;79.90
71754;DHT22;59593;51.716;7.016;2023-06-14T07:24:39;20.60;80.80
71754;DHT22;59593;51.716;7.016;2023-06-14T07:27:06;20.70;78.50
71754;DHT22;59593;51.716;7.016;2023-06-14T07:29:31;20.70;79.00
71754;DHT22;59593;51.716;7.016;2023-06-14T07:31:57;20.80;78.60
71754;DHT22;59593;51.716;7.016;2023-06-14T07:34:22;20.70;79.00
71754;DHT22;59593;51.716;7.016;2023-06-14T07:36:48;20.90;78.20
71754;DHT22;59593;51.716;7.016;2023-06-14T07:39:13;20.90;78.70
71754;DHT22;59593;51.716;7.016;2023-06-14T07:41:39;21.00;78.00
71754;DHT22;59593;51.716;7.016;2023-06-14T07:44:05;20.80;78.00
71754;DHT22;59593;51.716;7.016;2023-06-14T07:46:31;20.80;78.70
71754;DHT22;59593;51.716;7.016;2023-06-14T07:48:56;21.00;78.30
71754;DHT22;59593;51.716;7.016;2023-06-14T07:51:22;21.20;78.40
71754;DHT22;59593;51.716;7.016;2023-06-14T07:53:48;21.10;78.40
71754;DHT22;59593;51.716;7.016;2023-06-14T07:56:15;21.20;78.90
71754;DHT22;59593;51.716;7.016;2023-06-14T07:58:40;21.30;77.90
71754;DHT22;59593;51.716;7.016;2023-06-14T08:01:06;21.40;78.60
71754;DHT22;59593;51.716;7.016;2023-06-14T08:03:33;21.50;76.60
71754;DHT22;59593;51.716;7.016;2023-06-14T08:05:59;21.70;75.30
71754;DHT22;59593;51.716;7.016;2023-06-14T08:08:26;21.50;75.40
71754;DHT22;59593;51.716;7.016;2023-06-14T08:10:52;21.60;75.60
71754;DHT22;59593;51.716;7.016;2023-06-14T08:13:17;21.60;75.10
71754;DHT22;59593;51.716;7.016;2023-06-14T08:15:43;21.50;75.70
71754;DHT22;59593;51.716;7.016;2023-06-14T08:18:09;21.30;76.00
71754;DHT22;59593;51.716;7.016;2023-06-14T08:20:35;21.10;77.20
71754;DHT22;59593;51.716;7.016;2023-06-14T08:23:02;21.50;77.10
71754;DHT22;59593;51.716;7.016;2023-06-14T08:25:29;21.40;77.40
71754;DHT22;59593;51.716;7.016;2023-06-14T08:27:55;21.30;76.60
71754;DHT22;59593;51.716;7.016;2023-06-14T08:30:21;21.60;77.30
71754;DHT22;59593;51.716;7.016;2023-06-14T08:32:47;21.60;76.30
71754;DHT22;59593;51.716;7.016;2023-06-14T08:35:13;21.70;76.20
71754;DHT22;59593;51.716;7.016;2023-06-14T08:37:42;21.60;74.60
71754;DHT22;59593;51.716;7.016;2023-06-14T08:40:22;21.70;74.10
71754;DHT22;59593;51.716;7.016;2023-06-14T08:42:51;21.70;73.40
71754;DHT22;59593;51.716;7.016;2023-06-14T08:45:17;21.70;73.10
71754;DHT22;59593;51.716;7.016;2023-06-14T08:47:42;21.50;73.50
71754;DHT22;59593;51.716;7.016;2023-06-14T08:50:09;21.80;72.20
71754;DHT22;59593;51.716;7.016;2023-06-14T08:52:38;21.80;72.90
71754;DHT22;59593;51.716;7.016;2023-06-14T08:55:11;21.80;71.70
71754;DHT22;59593;51.716;7.016;2023-06-14T08:57:37;21.80;71.40
71754;DHT22;59593;51.716;7.016;2023-06-14T09:00:04;21.60;71.50
71754;DHT22;59593;51.716;7.016;2023-06-14T09:02:39;21.90;70.90
71754;DHT22;59593;51.716;7.016;2023-06-14T09:05:09;21.70;70.60
71754;DHT22;59593;51.716;7.016;2023-06-14T09:07:36;21.90;70.50
71754;DHT22;59593;51.716;7.016;2023-06-14T09:10:12;21.70;71.10
71754;DHT22;59593;51.716;7.016;2023-06-14T09:12:38;21.90;71.10
71754;DHT22;59593;51.716;7.016;2023-06-14T09:15:08;22.10;70.40
71754;DHT22;59593;51.716;7.016;2023-06-14T09:17:38;22.10;69.30
71754;DHT22;59593;51.716;7.016;2023-06-14T09:20:05;22.10;69.40
71754;DHT22;59593;51.716;7.016;2023-06-14T09:22:35;22.20;68.80
71754;DHT22;59593;51.716;7.016;2023-06-14T09:25:01;22.30;68.50
71754;DHT22;59593;51.716;7.016;2023-06-14T09:27:28;22.10;69.40
71754;DHT22;59593;51.716;7.016;2023-06-14T09:29:53;21.90;69.90
71754;DHT22;59593;51.716;7.016;2023-06-14T09:32:23;21.70;69.70
71754;DHT22;59593;51.716;7.016;2023-06-14T09:34:49;21.80;69.50
71754;DHT22;59593;51.716;7.016;2023-06-14T09:37:28;21.90;69.90
71754;DHT22;59593;51.716;7.016;2023-06-14T09:39:55;22.20;69.00
71754;DHT22;59593;51.716;7.016;2023-06-14T09:42:20;22.30;68.40
71754;DHT22;59593;51.716;7.016;2023-06-14T09:44:49;22.40;69.90
71754;DHT22;59593;51.716;7.016;2023-06-14T09:47:16;22.20;68.90
71754;DHT22;59593;51.716;7.016;2023-06-14T09:49:42;22.20;69.30
71754;DHT22;59593;51.716;7.016;2023-06-14T09:52:12;22.50;69.30
71754;DHT22;59593;51.716;7.016;2023-06-14T09:54:41;22.40;69.20
71754;DHT22;59593;51.716;7.016;2023-06-14T09:57:16;22.40;69.60
71754;DHT22;59593;51.716;7.016;2023-06-14T09:59:46;22.60;69.10
71754;DHT22;59593;51.716;7.016;2023-06-14T10:02:25;22.90;70.00
71754;DHT22;59593;51.716;7.016;2023-06-14T10:05:11;22.70;70.20
71754;DHT22;59593;51.716;7.016;2023-06-14T10:07:55;22.80;69.30
71754;DHT22;59593;51.716;7.016;2023-06-14T10:10:21;23.10;70.90
71754;DHT22;59593;51.716;7.016;2023-06-14T10:12:47;23.30;68.40
71754;DHT22;59593;51.716;7.016;2023-06-14T10:15:26;23.30;67.80
71754;DHT22;59593;51.716;7.016;2023-06-14T10:18:00;23.00;67.20
71754;DHT22;59593;51.716;7.016;2023-06-14T10:20:59;23.10;68.80
71754;DHT22;59593;51.716;7.016;2023-06-14T10:23:30;23.40;69.10
71754;DHT22;59593;51.716;7.016;2023-06-14T10:25:57;23.70;69.30
71754;DHT22;59593;51.716;7.016;2023-06-14T10:28:25;23.90;69.00
71754;DHT22;59593;51.716;7.016;2023-06-14T10:31:05;24.10;69.30
71754;DHT22;59593;51.716;7.016;2023-06-14T10:33:56;24.10;67.10
71754;DHT22;59593;51.716;7.016;2023-06-14T10:36:25;23.80;67.90
71754;DHT22;59593;51.716;7.016;2023-06-14T10:39:10;24.00;67.60
71754;DHT22;59593;51.716;7.016;2023-06-14T10:41:38;23.60;67.50
71754;DHT22;59593;51.716;7.016;2023-06-14T10:44:31;23.20;68.70
71754;DHT22;59593;51.716;7.016;2023-06-14T10:47:00;23.90;68.70
71754;DHT22;59593;51.716;7.016;2023-06-14T10:49:46;24.10;68.70
71754;DHT22;59593;51.716;7.016;2023-06-14T10:52:17;24.20;67.50
71754;DHT22;59593;51.716;7.016;2023-06-14T10:55:05;24.30;67.10
71754;DHT22;59593;51.716;7.016;2023-06-14T10:57:32;24.10;69.00
71754;DHT22;59593;51.716;7.016;2023-06-14T11:00:00;24.40;67.70
71754;DHT22;59593;51.716;7.016;2023-06-14T11:05:29;23.50;69.00
71754;DHT22;59593;51.716;7.016;2023-06-14T11:10:43;24.50;68.90
71754;DHT22;59593;51.716;7.016;2023-06-14T11:13:11;24.20;68.70
71754;DHT22;59593;51.716;7.016;2023-06-14T11:15:37;24.40;67.00
71754;DHT22;59593;51.716;7.016;2023-06-14T11:18:07;24.40;66.80
71754;DHT22;59593;51.716;7.016;2023-06-14T11:20:35;24.60;67.60
71754;DHT22;59593;51.716;7.016;2023-06-14T11:23:01;24.50;69.50
71754;DHT22;59593;51.716;7.016;2023-06-14T11:25:27;24.80;67.30
71754;DHT22;59593;51.716;7.016;2023-06-14T11:27:56;25.10;68.60
71754;DHT22;59593;51.716;7.016;2023-06-14T11:30:23;24.90;67.10
71754;DHT22;59593;51.716;7.016;2023-06-14T11:32:49;24.90;66.80
71754;DHT22;59593;51.716;7.016;2023-06-14T11:35:16;23.90;66.50
71754;DHT22;59593;51.716;7.016;2023-06-14T11:37:43;24.10;67.60
71754;DHT22;59593;51.716;7.016;2023-06-14T11:40:10;24.30;68.10
71754;DHT22;59593;51.716;7.016;2023-06-14T11:42:38;24.80;67.20
71754;DHT22;59593;51.716;7.016;2023-06-14T11:45:07;24.80;68.20
71754;DHT22;59593;51.716;7.016;2023-06-14T11:47:33;25.00;67.50
71754;DHT22;59593;51.716;7.016;2023-06-14T11:50:00;24.40;68.70
71754;DHT22;59593;51.716;7.016;2023-06-14T11:52:26;24.50;68.80
71754;DHT22;59593;51.716;7.016;2023-06-14T11:54:53;24.20;68.20
71754;DHT22;59593;51.716;7.016;2023-06-14T11:57:19;24.50;68.20
71754;DHT22;59593;51.716;7.016;2023-06-14T11:59:45;24.40;67.20
71754;DHT22;59593;51.716;7.016;2023-06-14T12:02:15;24.10;66.40
71754;DHT22;59593;51.716;7.016;2023-06-14T12:04:42;24.20;67.70
71754;DHT22;59593;51.716;7.016;2023-06-14T12:07:12;25.10;67.00
71754;DHT22;59593;51.716;7.016;2023-06-14T12:10:04;25.20;66.10
71754;DHT22;59593;51.716;7.016;2023-06-14T12:12:35;25.50;65.60
71754;DHT22;59593;51.716;7.016;2023-06-14T12:15:06;25.30;65.50
71754;DHT22;59593;51.716;7.016;2023-06-14T12:17:37;25.00;66.60
71754;DHT22;59593;51.716;7.016;2023-06-14T12:22:39;25.50;64.40
71754;DHT22;59593;51.716;7.016;2023-06-14T12:25:32;24.90;63.70
71754;DHT22;59593;51.716;7.016;2023-06-14T12:27:59;24.90;65.50
71754;DHT22;59593;51.716;7.016;2023-06-14T12:30:28;24.70;65.20
71754;DHT22;59593;51.716;7.016;2023-06-14T12:32:54;25.40;67.30
71754;DHT22;59593;51.716;7.016;2023-06-14T12:35:19;25.50;64.80
71754;DHT22;59593;51.716;7.016;2023-06-14T12:37:45;25.30;65.30
71754;DHT22;59593;51.716;7.016;2023-06-14T12:40:12;25.60;65.10
71754;DHT22;59593;51.716;7.016;2023-06-14T12:42:37;25.60;64.30
71754;DHT22;59593;51.716;7.016;2023-06-14T12:45:03;25.60;64.60
71754;DHT22;59593;51.716;7.016;2023-06-14T12:47:29;25.80;63.50
71754;DHT22;59593;51.716;7.016;2023-06-14T12:49:55;25.60;64.90
71754;DHT22;59593;51.716;7.016;2023-06-14T12:52:20;25.80;64.00
71754;DHT22;59593;51.716;7.016;2023-06-14T12:54:46;25.60;64.60
71754;DHT22;59593;51.716;7.016;2023-06-14T12:57:11;25.90;64.80
71754;DHT22;59593;51.716;7.016;2023-06-14T12:59:37;25.50;64.20
71754;DHT22;59593;51.716;7.016;2023-06-14T13:02:16;26.00;64.60
71754;DHT22;59593;51.716;7.016;2023-06-14T13:04:43;25.60;64.90
71754;DHT22;59593;51.716;7.016;2023-06-14T13:07:09;25.40;64.50
71754;DHT22;59593;51.716;7.016;2023-06-14T13:09:36;25.60;63.80
71754;DHT22;59593;51.716;7.016;2023-06-14T13:12:02;25.80;65.10
71754;DHT22;59593;51.716;7.016;2023-06-14T13:14:27;26.00;63.00
71754;DHT22;59593;51.716;7.016;2023-06-14T13:16:53;26.50;63.20
71754;DHT22;59593;51.716;7.016;2023-06-14T13:19:18;26.10;62.20
71754;DHT22;59593;51.716;7.016;2023-06-14T13:21:44;25.80;62.70
71754;DHT22;59593;51.716;7.016;2023-06-14T13:24:10;26.30;63.40
71754;DHT22;59593;51.716;7.016;2023-06-14T13:26:35;26.10;63.20
71754;DHT22;59593;51.716;7.016;2023-06-14T13:29:01;26.50;64.80
71754;DHT22;59593;51.716;7.016;2023-06-14T13:31:26;26.30;63.00
71754;DHT22;59593;51.716;7.016;2023-06-14T13:33:52;25.80;64.10
71754;DHT22;59593;51.716;7.016;2023-06-14T13:36:18;26.30;62.90
71754;DHT22;59593;51.716;7.016;2023-06-14T13:38:43;26.30;64.20
71754;DHT22;59593;51.716;7.016;2023-06-14T13:41:09;26.80;63.20
71754;DHT22;59593;51.716;7.016;2023-06-14T13:43:34;26.80;65.30
71754;DHT22;59593;51.716;7.016;2023-06-14T13:46:00;26.90;62.10
71754;DHT22;59593;51.716;7.016;2023-06-14T13:48:26;26.60;61.90
71754;DHT22;59593;51.716;7.016;2023-06-14T13:50:51;26.60;61.90
71754;DHT22;59593;51.716;7.016;2023-06-14T13:53:17;27.00;61.50
71754;DHT22;59593;51.716;7.016;2023-06-14T13:55:43;27.00;61.60
71754;DHT22;59593;51.716;7.016;2023-06-14T13:58:08;27.20;61.10
71754;DHT22;59593;51.716;7.016;2023-06-14T14:00:34;27.60;61.90
71754;DHT22;59593;51.716;7.016;2023-06-14T14:03:02;26.90;61.50
71754;DHT22;59593;51.716;7.016;2023-06-14T14:05:28;26.50;61.00
71754;DHT22;59593;51.716;7.016;2023-06-14T14:07:55;26.10;63.30
71754;DHT22;59593;51.716;7.016;2023-06-14T14:10:22;25.80;62.80
71754;DHT22;59593;51.716;7.016;2023-06-14T14:12:48;26.10;62.30
71754;DHT22;59593;51.716;7.016;2023-06-14T14:15:14;26.50;62.40
71754;DHT22;59593;51.716;7.016;2023-06-14T14:17:41;25.80;62.90
71754;DHT22;59593;51.716;7.016;2023-06-14T14:20:07;26.60;62.60
71754;DHT22;59593;51.716;7.016;2023-06-14T14:22:33;26.90;63.30
71754;DHT22;59593;51.716;7.016;2023-06-14T14:24:58;26.60;63.10
71754;DHT22;59593;51.716;7.016;2023-06-14T14:27:24;26.80;60.90
71754;DHT22;59593;51.716;7.016;2023-06-14T14:29:50;26.30;61.20
71754;DHT22;59593;51.716;7.016;2023-06-14T14:32:15;26.70;61.30
71754;DHT22;59593;51.716;7.016;2023-06-14T14:34:41;27.30;60.90
71754;DHT22;59593;51.716;7.016;2023-06-14T14:37:06;27.70;60.00
71754;DHT22;59593;51.716;7.016;2023-06-14T14:39:32;27.50;58.80
71754;DHT22;59593;51.716;7.016;2023-06-14T14:41:58;26.70;59.70
71754;DHT22;59593;51.716;7.016;2023-06-14T14:44:24;26.90;60.10
71754;DHT22;59593;51.716;7.016;2023-06-14T14:46:49;26.40;60.30
71754;DHT22;59593;51.716;7.016;2023-06-14T14:49:15;26.50;60.20
71754;DHT22;59593;51.716;7.016;2023-06-14T14:51:41;26.70;61.40
71754;DHT22;59593;51.716;7.016;2023-06-14T14:54:06;27.10;63.60
71754;DHT22;59593;51.716;7.016;2023-06-14T14:56:32;27.20;61.90
71754;DHT22;59593;51.716;7.016;2023-06-14T14:58:58;26.80;59.60
71754;DHT22;59593;51.716;7.016;2023-06-14T15:01:23;27.20;60.50
71754;DHT22;59593;51.716;7.016;2023-06-14T15:03:49;27.60;59.00
71754;DHT22;59593;51.716;7.016;2023-06-14T15:06:14;27.30;59.50
71754;DHT22;59593;51.716;7.016;2023-06-14T15:08:40;27.20;59.30
71754;DHT22;59593;51.716;7.016;2023-06-14T15:11:06;27.40;60.30
71754;DHT22;59593;51.716;7.016;2023-06-14T15:13:32;26.80;58.30
71754;DHT22;59593;51.716;7.016;2023-06-14T15:15:57;26.30;60.80
71754;DHT22;59593;51.716;7.016;2023-06-14T15:18:23;26.80;60.60
71754;DHT22;59593;51.716;7.016;2023-06-14T15:20:49;26.90;59.00
71754;DHT22;59593;51.716;7.016;2023-06-14T15:23:15;26.10;60.50
71754;DHT22;59593;51.716;7.016;2023-06-14T15:25:45;26.80;59.80
71754;DHT22;59593;51.716;7.016;2023-06-14T15:28:12;26.40;60.60
71754;DHT22;59593;51.716;7.016;2023-06-14T15:30:37;26.60;60.90
71754;DHT22;59593;51.716;7.016;2023-06-14T15:33:03;27.10;60.30
71754;DHT22;59593;51.716;7.016;2023-06-14T15:35:28;26.70;59.80
71754;DHT22;59593;51.716;7.016;2023-06-14T15:37:54;26.40;60.90
71754;DHT22;59593;51.716;7.016;2023-06-14T15:40:20;26.50;59.50
71754;DHT22;59593;51.716;7.016;2023-06-14T15:42:45;26.20;60.30